Clovis ASC

2021-07-24 21:50:00

  • imperial
Date Time Air Temperature Relative Humidity Dewpoint Windchill Heat Index Wind Speed Wind Dir. Rain Solar Radiation Soil Temperature Soil Temperature
2m 2m 3m 3m 5cm 10cm
US/Mountain F % F F F MPH deg in MJ/m^2 F F
max avg avg
2021-07-23 21:55:00 69.8 64.4 57.3 69.8 69.8 1.5 2.4 2.0 213.5 209.5 0.00 0.0000000 80.9 84.0
2021-07-23 22:00:00 69.9 64.7 57.5 69.9 69.9 1.0 2.1 1.6 225.4 216.7 0.00 0.0000000 80.7 83.8
2021-07-23 22:05:00 69.7 64.9 57.4 69.7 69.7 1.7 1.7 1.1 240.1 236.5 0.00 0.0000000 80.6 83.7
2021-07-23 22:10:00 69.7 65.7 57.7 69.7 69.7 1.9 2.4 2.2 227.3 231.4 0.00 0.0000000 80.4 83.5
2021-07-23 22:15:00 69.5 66.6 57.9 69.5 69.5 1.2 2.1 1.8 231.4 230.0 0.00 0.0000000 80.2 83.4
2021-07-23 22:20:00 69.3 68.9 58.6 69.3 69.3 0.0 1.3 0.2 204.5 219.0 0.00 0.0000000 80.1 83.3
2021-07-23 22:25:00 69.1 69.1 58.6 69.1 69.1 0.0 1.7 1.0 222.8 223.3 0.00 0.0000000 80.0 83.2
2021-07-23 22:30:00 69.0 68.0 58.0 69.0 69.0 1.2 1.2 0.2 214.4 221.6 0.00 0.0000000 79.8 83.0
2021-07-23 22:35:00 69.0 67.2 57.7 69.0 69.0 1.9 2.1 1.7 196.6 205.3 0.00 0.0000000 79.6 82.9
2021-07-23 22:40:00 69.1 66.3 57.4 69.1 69.1 2.2 2.2 2.0 195.3 190.4 0.00 0.0000000 79.5 82.8
2021-07-23 22:45:00 69.3 65.8 57.3 69.3 69.3 2.6 2.8 2.4 191.3 190.5 0.00 0.0000000 79.3 82.6
2021-07-23 22:50:00 69.6 65.4 57.5 69.6 69.6 2.4 3.0 2.6 187.2 190.1 0.00 0.0000000 79.2 82.5
2021-07-23 22:55:00 69.5 66.1 57.7 69.5 69.5 3.3 3.3 2.8 186.2 188.6 0.00 0.0000000 79.1 82.4
2021-07-23 23:00:00 69.3 66.9 57.8 69.3 69.3 2.8 3.8 3.3 190.4 188.7 0.00 0.0000000 78.9 82.3
2021-07-23 23:05:00 69.0 67.6 57.8 69.0 69.0 2.6 3.1 2.7 209.2 197.3 0.00 0.0000000 78.8 82.1
2021-07-23 23:10:00 68.7 68.3 57.8 68.7 68.7 2.4 2.8 2.4 208.0 201.9 0.00 0.0000000 78.7 82.1
2021-07-23 23:15:00 68.5 68.3 57.7 68.5 68.5 2.1 2.4 2.1 213.9 206.0 0.00 0.0000000 78.5 81.9
2021-07-23 23:20:00 68.4 70.9 58.6 68.4 68.4 0.8 2.2 1.6 219.4 214.7 0.00 0.0000000 78.4 81.8
2021-07-23 23:25:00 68.2 73.5 59.4 68.2 68.2 0.8 1.0 0.2 206.1 205.5 0.00 0.0000000 78.3 81.7
2021-07-23 23:30:00 67.9 71.7 58.5 67.9 67.9 0.0 1.0 0.1 209.7 203.6 0.00 0.0000000 78.2 81.6
2021-07-23 23:35:00 67.6 74.4 59.2 67.6 67.6 1.2 1.2 0.2 224.6 212.7 0.00 0.0000000 78.0 81.4
2021-07-23 23:40:00 67.4 74.8 59.1 67.4 67.4 1.2 1.5 1.2 219.6 226.5 0.00 0.0000000 77.9 81.3
2021-07-23 23:45:00 67.2 73.2 58.4 67.2 67.2 0.8 1.2 0.4 207.0 209.4 0.00 0.0000000 77.8 81.2
2021-07-23 23:50:00 67.3 75.7 59.4 67.3 67.3 0.0 0.8 0.0 205.2 205.1 0.00 0.0000000 77.7 81.1
2021-07-23 23:55:00 67.2 75.8 59.3 67.2 67.2 0.0 0.0 0.0 204.1 205.0 0.00 0.0000000 77.6 81.0
2021-07-24 00:00:00 67.1 73.6 58.4 67.1 67.1 1.7 1.7 1.1 242.3 215.2 0.00 0.0000000 77.5 80.9
2021-07-24 00:05:00 67.4 72.0 58.0 67.4 67.4 2.6 2.6 2.2 262.7 256.8 0.00 0.0000000 77.4 80.8
2021-07-24 00:10:00 67.3 73.2 58.4 67.3 67.3 2.2 3.0 2.6 250.5 260.0 0.00 0.0000000 77.2 80.7
2021-07-24 00:15:00 67.1 75.2 59.0 67.1 67.1 0.0 1.9 0.7 239.8 239.5 0.00 0.0000000 77.1 80.6
2021-07-24 00:20:00 66.9 76.4 59.2 66.9 66.9 0.0 0.0 0.0 224.1 225.9 0.00 0.0000000 77.0 80.5
2021-07-24 00:25:00 66.8 74.8 58.5 66.8 66.8 0.0 0.0 0.0 248.3 243.8 0.00 0.0000000 76.9 80.4
2021-07-24 00:30:00 66.8 75.4 58.7 66.8 66.8 1.3 1.7 0.5 241.2 253.7 0.00 0.0000000 76.8 80.3
2021-07-24 00:35:00 66.7 76.4 59.1 66.7 66.7 1.5 1.9 1.4 257.3 264.6 0.00 0.0000000 76.7 80.2
2021-07-24 00:40:00 66.5 76.4 58.8 66.5 66.5 0.0 1.7 0.9 258.2 259.8 0.00 0.0000000 76.6 80.1
2021-07-24 00:45:00 66.8 74.1 58.2 66.8 66.8 0.0 0.0 0.0 200.1 234.5 0.00 0.0000000 76.5 80.0
2021-07-24 00:50:00 66.8 77.2 59.5 66.8 66.8 0.0 0.0 0.0 219.5 216.3 0.00 0.0000000 76.4 80.0
2021-07-24 00:55:00 66.3 79.2 59.6 66.3 66.3 2.2 2.2 1.3 251.2 233.6 0.00 0.0000000 76.3 79.8
2021-07-24 01:00:00 66.2 77.6 59.0 66.2 66.2 2.6 3.0 2.8 244.1 245.3 0.00 0.0000000 76.2 79.8
2021-07-24 01:05:00 66.2 78.6 59.4 66.2 66.2 3.7 3.7 3.0 250.1 247.2 0.00 0.0000000 76.1 79.6
2021-07-24 01:10:00 65.8 80.1 59.5 65.8 65.8 4.4 4.6 4.0 248.3 248.2 0.00 0.0000000 76.0 79.6
2021-07-24 01:15:00 66.2 77.5 59.0 66.2 66.2 3.3 6.0 4.6 230.4 239.1 0.00 0.0000000 75.9 79.4
2021-07-24 01:20:00 66.1 76.8 58.6 66.1 66.1 2.4 3.7 2.9 211.0 223.4 0.00 0.0000000 75.8 79.4
2021-07-24 01:25:00 66.1 76.4 58.5 66.1 66.1 2.6 3.0 2.6 201.5 206.5 0.00 0.0000000 75.7 79.3
2021-07-24 01:30:00 65.8 77.4 58.5 65.8 65.8 1.7 2.8 2.1 198.4 208.4 0.00 0.0000000 75.7 79.2
2021-07-24 01:35:00 65.2 78.8 58.5 65.2 65.2 3.5 3.5 2.0 151.9 144.6 0.00 0.0000000 75.6 79.1
2021-07-24 01:40:00 64.4 81.8 58.7 64.4 64.4 4.7 6.3 4.6 107.4 116.9 0.00 0.0000000 75.4 79.0
2021-07-24 01:45:00 64.2 81.6 58.5 64.2 64.2 3.0 4.9 3.6 134.7 122.3 0.00 0.0000000 75.3 78.9
2021-07-24 01:50:00 64.3 81.4 58.4 64.3 64.3 3.3 3.3 2.9 136.5 139.6 0.00 0.0000000 75.3 78.9
2021-07-24 01:55:00 64.4 79.4 57.9 64.4 64.4 3.0 3.7 3.3 149.4 137.6 0.00 0.0000000 75.1 78.8
2021-07-24 02:00:00 64.9 78.2 57.9 64.9 64.9 3.7 3.7 3.2 125.5 134.5 0.00 0.0000000 75.0 78.7
2021-07-24 02:05:00 64.7 79.4 58.2 64.7 64.7 2.4 4.4 3.2 162.0 146.5 0.00 0.0000000 74.9 78.6
2021-07-24 02:10:00 65.0 78.6 58.2 65.0 65.0 2.8 3.3 2.8 197.9 180.7 0.00 0.0000000 74.8 78.5
2021-07-24 02:15:00 64.7 79.5 58.2 64.7 64.7 3.1 3.3 2.9 190.9 194.1 0.00 0.0000000 74.7 78.4
2021-07-24 02:20:00 64.7 79.7 58.3 64.7 64.7 3.1 3.3 2.9 207.1 202.8 0.00 0.0000000 74.6 78.3
2021-07-24 02:25:00 64.7 78.6 57.9 64.7 64.7 3.3 3.5 3.1 227.6 216.3 0.00 0.0000000 74.5 78.2
2021-07-24 02:30:00 64.7 78.5 57.9 64.7 64.7 3.7 4.2 3.7 253.0 236.4 0.00 0.0000000 74.4 78.1
2021-07-24 02:35:00 64.9 78.2 58.0 64.9 64.9 3.0 3.7 3.2 265.0 261.7 0.00 0.0000000 74.3 78.0
2021-07-24 02:40:00 64.4 80.0 58.1 64.4 64.4 2.8 3.1 2.4 286.1 276.3 0.00 0.0000000 74.3 77.9
2021-07-24 02:45:00 64.1 80.3 57.9 64.1 64.1 0.0 3.1 1.9 257.6 270.1 0.00 0.0000000 74.2 77.9
2021-07-24 02:50:00 64.1 81.1 58.2 64.1 64.1 0.0 0.0 0.0 219.1 227.1 0.00 0.0000000 74.1 77.8
2021-07-24 02:55:00 64.0 80.8 57.9 64.0 64.0 0.0 1.0 0.2 231.9 224.6 0.00 0.0000000 74.0 77.7
2021-07-24 03:00:00 64.0 81.1 58.0 64.0 64.0 2.4 2.4 1.3 259.6 243.0 0.00 0.0000000 73.9 77.6
2021-07-24 03:05:00 63.4 83.0 58.1 63.4 63.4 2.6 3.1 2.9 256.1 261.1 0.00 0.0000000 73.8 77.5
2021-07-24 03:10:00 63.6 81.6 57.9 63.6 63.6 3.3 4.0 3.5 230.7 244.6 0.00 0.0000000 73.7 77.5
2021-07-24 03:15:00 63.5 80.9 57.5 63.5 63.5 3.5 4.2 3.5 240.6 223.3 0.00 0.0000000 73.6 77.3
2021-07-24 03:20:00 63.4 82.4 58.0 63.4 63.4 3.8 4.2 3.8 240.0 247.8 0.00 0.0000000 73.5 77.3
2021-07-24 03:25:00 63.3 82.3 57.8 63.3 63.3 2.1 4.7 3.3 222.8 227.6 0.00 0.0000000 73.4 77.2
2021-07-24 03:30:00 63.0 83.4 57.9 63.0 63.0 3.1 3.1 2.1 257.9 243.0 0.00 0.0000000 73.4 77.1
2021-07-24 03:35:00 62.9 84.1 58.0 62.9 62.9 3.7 3.8 3.3 270.5 270.2 0.00 0.0000000 73.3 77.0
2021-07-24 03:40:00 62.4 85.0 57.8 62.4 62.4 3.3 3.8 3.5 297.1 285.0 0.00 0.0000000 73.2 76.9
2021-07-24 03:45:00 62.2 86.2 58.0 62.2 62.2 1.5 3.3 2.0 226.4 253.4 0.00 0.0000000 73.1 76.9
2021-07-24 03:50:00 61.9 86.0 57.7 61.9 61.9 4.4 4.4 2.5 315.2 294.3 0.00 0.0000000 73.0 76.8
2021-07-24 03:55:00 61.4 87.3 57.6 61.4 61.4 4.0 4.7 4.2 294.6 301.1 0.00 0.0000000 72.9 76.7
2021-07-24 04:00:00 61.6 86.4 57.5 61.6 61.6 4.2 4.6 4.2 296.3 296.9 0.00 0.0000000 72.8 76.6
2021-07-24 04:05:00 61.9 85.4 57.5 61.9 61.9 4.7 4.7 4.5 303.6 301.0 0.00 0.0000000 72.8 76.6
2021-07-24 04:10:00 62.2 83.9 57.3 62.2 62.2 4.7 5.3 4.6 287.8 293.3 0.00 0.0000000 72.7 76.5
2021-07-24 04:15:00 62.7 82.8 57.4 62.7 62.7 4.6 4.7 4.1 271.5 276.4 0.00 0.0000000 72.6 76.4
2021-07-24 04:20:00 62.9 82.1 57.3 62.9 62.9 4.2 5.1 4.5 270.8 275.9 0.00 0.0000000 72.5 76.3
2021-07-24 04:25:00 62.9 81.9 57.3 62.9 62.9 4.0 5.1 4.4 260.4 277.3 0.00 0.0000000 72.4 76.2
2021-07-24 04:30:00 62.8 82.2 57.3 62.8 62.8 2.4 4.2 3.2 278.7 277.3 0.00 0.0000000 72.3 76.2
2021-07-24 04:35:00 62.5 82.8 57.2 62.5 62.5 1.3 2.2 1.6 288.2 276.0 0.00 0.0000000 72.3 76.1
2021-07-24 04:40:00 62.4 82.6 57.1 62.4 62.4 0.0 1.5 1.0 271.8 275.8 0.00 0.0000000 72.2 76.0
2021-07-24 04:45:00 62.4 83.6 57.3 62.4 62.4 0.0 0.0 0.0 303.1 298.0 0.00 0.0000000 72.1 75.9
2021-07-24 04:50:00 62.2 84.5 57.5 62.2 62.2 1.5 1.5 0.1 176.5 215.3 0.00 0.0000000 72.1 75.9
2021-07-24 04:55:00 61.4 85.5 57.1 61.4 61.4 4.6 4.7 3.2 144.3 154.0 0.00 0.0000000 72.0 75.8
2021-07-24 05:00:00 61.4 86.6 57.4 61.4 61.4 2.2 4.4 2.9 180.2 173.9 0.00 0.0000000 71.9 75.7
2021-07-24 05:05:00 61.1 88.3 57.7 61.1 61.1 3.5 3.5 2.4 158.1 158.9 0.00 0.0000000 71.8 75.6
2021-07-24 05:10:00 61.0 88.8 57.7 61.0 61.0 0.8 3.3 1.7 258.0 201.3 0.00 0.0000000 71.7 75.6
2021-07-24 05:15:00 61.0 88.5 57.5 61.0 61.0 0.0 1.0 0.1 268.2 261.7 0.00 0.0000000 71.6 75.5
2021-07-24 05:20:00 61.0 88.7 57.6 61.0 61.0 0.0 0.0 0.0 247.7 247.7 0.00 0.0000000 71.6 75.4
2021-07-24 05:25:00 61.0 88.5 57.5 61.0 61.0 0.0 0.0 0.0 247.8 247.7 0.00 0.0000000 71.5 75.4
2021-07-24 05:30:00 61.0 89.2 57.8 61.0 61.0 0.0 0.0 0.0 247.8 247.8 0.00 0.0000000 71.4 75.3
2021-07-24 05:35:00 60.7 90.1 57.8 60.7 60.7 0.0 0.0 0.0 247.9 247.9 0.00 0.0000000 71.4 75.2
2021-07-24 05:40:00 60.4 90.5 57.6 60.4 60.4 0.0 0.0 0.0 280.3 274.6 0.00 0.0000000 71.3 75.1
2021-07-24 05:45:00 60.5 89.8 57.5 60.5 60.5 3.7 3.7 1.8 298.7 290.5 0.00 0.0000000 71.2 75.1
2021-07-24 05:50:00 60.4 89.3 57.2 60.4 60.4 3.5 4.6 4.0 283.7 291.6 0.00 0.0000000 71.2 75.0
2021-07-24 05:55:00 60.3 88.8 57.0 60.3 60.3 4.4 4.6 4.0 295.9 290.3 0.00 0.0000326 71.1 74.9
2021-07-24 06:00:00 60.5 88.4 57.0 60.5 60.5 4.6 5.6 4.6 287.3 284.5 0.00 0.0006644 71.0 74.9
2021-07-24 06:05:00 60.7 88.5 57.2 60.7 60.7 4.9 5.3 4.6 293.6 293.7 0.00 0.0023602 70.9 74.8
2021-07-24 06:10:00 61.0 88.1 57.4 61.0 61.0 4.2 5.3 4.4 302.9 298.3 0.00 0.0048521 70.9 74.7
2021-07-24 06:15:00 61.5 86.9 57.6 61.5 61.5 3.5 4.2 3.7 272.6 289.7 0.00 0.0078016 70.8 74.7
2021-07-24 06:20:00 62.2 85.4 57.7 62.2 62.2 4.4 4.4 3.6 265.0 269.8 0.00 0.0111914 70.7 74.6
2021-07-24 06:25:00 62.4 84.9 57.8 62.4 62.4 4.7 5.5 4.5 268.5 266.5 0.00 0.0149675 70.7 74.5
2021-07-24 06:30:00 62.5 85.0 57.9 62.5 62.5 3.7 5.3 4.2 273.8 273.7 0.00 0.0186407 70.6 74.5
2021-07-24 06:35:00 62.6 85.2 58.1 62.6 62.6 5.6 6.2 4.7 272.6 273.5 0.00 0.0223898 70.6 74.4
2021-07-24 06:40:00 62.9 84.5 58.2 62.9 62.9 5.6 5.8 5.1 285.3 277.6 0.00 0.0264114 70.6 74.3
2021-07-24 06:45:00 63.6 84.1 58.7 63.6 63.6 4.6 6.5 5.2 284.9 282.5 0.00 0.0307576 70.5 74.3
2021-07-24 06:50:00 63.8 83.1 58.6 63.8 63.8 5.8 7.4 5.9 293.3 282.4 0.00 0.0348903 70.6 74.2
2021-07-24 06:55:00 64.1 82.1 58.6 64.1 64.1 5.6 6.7 5.8 277.2 278.4 0.00 0.0390894 70.5 74.2
2021-07-24 07:00:00 64.7 80.7 58.6 64.7 64.7 5.3 6.5 5.7 261.5 274.0 0.00 0.0436657 70.5 74.2
2021-07-24 07:05:00 65.5 79.0 58.9 65.5 65.5 3.8 5.8 5.0 281.2 269.9 0.00 0.0482154 70.6 74.1
2021-07-24 07:10:00 66.1 77.4 58.9 66.1 66.1 3.3 5.3 4.2 279.1 275.7 0.00 0.0525622 70.6 74.1
2021-07-24 07:15:00 66.8 76.3 59.1 66.8 66.8 4.7 5.1 3.5 296.1 286.5 0.00 0.0570080 70.7 74.1
2021-07-24 07:20:00 67.2 76.0 59.4 67.2 67.2 4.4 5.8 3.6 52.5 324.5 0.00 0.0615486 70.7 74.0
2021-07-24 07:25:00 66.8 78.8 60.0 66.8 66.8 3.0 6.0 4.1 0.1 43.8 0.00 0.0661179 70.9 74.0
2021-07-24 07:30:00 67.3 74.1 58.8 67.3 67.3 3.5 4.9 3.8 283.2 288.1 0.00 0.0707046 71.0 74.0
2021-07-24 07:35:00 68.5 69.8 58.2 68.5 68.5 1.3 4.6 3.4 279.8 274.5 0.00 0.0756053 71.1 74.0
2021-07-24 07:40:00 69.2 69.0 58.6 69.2 69.2 3.8 6.3 3.6 148.2 121.0 0.00 0.0802916 71.2 74.0
2021-07-24 07:45:00 68.8 74.6 60.4 68.8 68.8 5.8 8.8 5.0 169.4 151.1 0.00 0.0844036 71.4 74.0
2021-07-24 07:50:00 68.2 76.2 60.4 68.2 68.2 3.3 6.2 4.2 138.2 166.8 0.00 0.0894873 71.6 74.0
2021-07-24 07:55:00 68.7 70.6 58.8 68.7 68.7 2.2 5.3 3.7 150.7 133.2 0.00 0.0950545 71.7 74.1
2021-07-24 08:00:00 68.8 73.9 60.1 68.8 68.8 4.4 5.6 4.1 146.6 137.5 0.00 0.1000527 71.9 74.2
2021-07-24 08:05:00 68.4 74.6 60.0 68.4 68.4 4.0 6.2 4.5 155.5 154.7 0.00 0.1048315 72.1 74.2
2021-07-24 08:10:00 68.5 73.8 59.8 68.5 68.5 5.1 6.3 5.0 173.6 156.9 0.00 0.1098495 72.4 74.3
2021-07-24 08:15:00 68.3 73.5 59.5 68.3 68.3 4.9 6.0 4.8 191.7 189.1 0.00 0.1150588 72.6 74.3
2021-07-24 08:20:00 68.5 76.3 60.8 68.5 68.5 2.8 5.1 4.1 167.6 182.9 0.00 0.1203143 72.8 74.4
2021-07-24 08:25:00 69.1 70.6 59.2 69.1 69.1 3.3 5.8 4.1 232.1 191.5 0.00 0.1255865 73.1 74.5
2021-07-24 08:30:00 69.3 72.3 60.0 69.3 69.3 4.4 5.3 4.3 213.8 206.6 0.00 0.1307694 73.3 74.6
2021-07-24 08:35:00 69.7 69.5 59.3 69.7 69.7 6.0 6.3 4.5 243.8 258.4 0.00 0.1366512 73.6 74.7
2021-07-24 08:40:00 70.6 68.5 59.7 70.6 70.6 3.8 6.2 4.6 251.1 241.9 0.00 0.1418800 73.9 74.8
2021-07-24 08:45:00 71.7 66.0 59.7 71.7 71.7 2.4 6.2 3.6 218.3 236.1 0.00 0.1466504 74.2 74.9
2021-07-24 08:50:00 72.3 63.0 59.0 72.3 72.3 5.3 6.3 3.6 282.4 263.0 0.00 0.1518379 74.6 75.1
2021-07-24 08:55:00 73.2 61.0 58.9 73.2 73.2 5.8 6.2 4.8 263.9 257.7 0.00 0.1570563 74.9 75.2
2021-07-24 09:00:00 73.2 60.5 58.8 73.2 73.2 5.1 8.3 5.9 264.5 247.7 0.00 0.1622210 75.3 75.3
2021-07-24 09:05:00 73.8 59.0 58.6 73.8 73.8 6.0 8.0 5.4 229.0 249.0 0.00 0.1672303 75.6 75.5
2021-07-24 09:10:00 74.4 56.4 57.9 74.4 74.4 4.9 8.7 6.0 274.7 255.3 0.00 0.1721497 75.9 75.6
2021-07-24 09:15:00 74.6 57.9 58.8 74.6 74.6 6.5 8.1 6.0 246.1 261.3 0.00 0.1769647 76.3 75.8
2021-07-24 09:20:00 75.1 56.1 58.4 75.1 75.1 6.7 6.9 5.6 230.3 235.0 0.00 0.1817739 76.6 76.0
2021-07-24 09:25:00 75.7 55.2 58.5 75.7 75.7 8.7 8.7 5.2 230.9 222.6 0.00 0.1864696 77.0 76.2
2021-07-24 09:30:00 76.6 52.3 57.8 76.6 76.6 8.3 9.6 6.7 252.6 227.7 0.00 0.1913678 77.3 76.4
2021-07-24 09:35:00 77.4 50.8 57.8 77.4 77.4 5.1 9.7 6.9 260.6 252.2 0.00 0.1963620 77.6 76.6
2021-07-24 09:40:00 77.9 51.1 58.4 77.9 77.9 8.5 11.5 8.3 237.4 239.2 0.00 0.2012520 77.9 76.8
2021-07-24 09:45:00 78.4 47.7 56.9 78.4 78.4 7.8 11.3 9.0 267.0 252.9 0.00 0.2059139 78.2 77.0
2021-07-24 09:50:00 78.9 46.7 56.8 78.9 78.9 6.9 9.4 7.4 267.1 269.3 0.00 0.2110215 78.5 77.2
2021-07-24 09:55:00 79.7 44.9 56.4 79.7 79.7 9.9 9.9 7.3 241.3 259.8 0.00 0.2150251 78.7 77.4
2021-07-24 10:00:00 80.2 43.0 55.6 80.2 80.3 6.9 10.3 8.2 233.4 252.6 0.00 0.2192996 79.0 77.6
2021-07-24 10:05:00 80.8 39.7 54.0 80.8 80.8 9.6 9.9 7.8 260.3 254.2 0.00 0.2235924 79.3 77.9
2021-07-24 10:10:00 81.4 42.8 56.6 81.4 81.2 7.1 12.6 9.0 291.3 255.4 0.00 0.2277930 79.6 78.1
2021-07-24 10:15:00 81.0 36.7 52.1 81.0 81.0 8.3 11.3 8.8 275.9 275.9 0.00 0.2317373 79.8 78.4
2021-07-24 10:20:00 81.1 38.2 53.2 81.1 81.1 6.3 12.1 8.8 293.0 261.5 0.00 0.2357122 80.1 78.6
2021-07-24 10:25:00 81.2 36.9 52.4 81.2 81.2 5.8 12.1 8.5 269.4 268.7 0.00 0.2389414 80.4 78.9
2021-07-24 10:30:00 81.3 38.2 53.4 81.3 81.3 8.1 11.9 7.8 270.2 267.9 0.00 0.2427898 80.7 79.1
2021-07-24 10:35:00 81.9 36.7 52.9 81.9 81.9 10.3 10.3 7.7 289.8 280.4 0.00 0.2466671 81.0 79.4
2021-07-24 10:40:00 82.1 36.1 52.6 82.1 82.1 8.8 9.4 7.2 263.6 275.1 0.00 0.2502947 81.3 79.6
2021-07-24 10:45:00 81.9 39.7 55.0 81.9 81.9 4.9 10.1 7.6 330.7 287.5 0.00 0.2533070 81.6 79.9
2021-07-24 10:50:00 82.0 35.4 52.0 82.0 82.0 6.2 11.3 8.4 285.3 275.7 0.00 0.2564846 81.9 80.2
2021-07-24 10:55:00 82.5 37.7 54.1 82.5 82.5 6.3 10.3 6.4 325.4 292.4 0.00 0.2598150 82.2 80.4
2021-07-24 11:00:00 82.7 33.4 51.0 82.7 82.7 8.3 12.4 8.3 269.1 268.3 0.00 0.2472718 82.5 80.7
2021-07-24 11:05:00 83.0 35.3 52.7 83.0 83.0 5.3 8.3 5.7 233.0 253.1 0.00 0.2662846 82.5 81.0
2021-07-24 11:10:00 83.4 36.0 53.7 83.4 83.4 7.2 8.5 6.2 292.0 278.5 0.00 0.2686404 82.5 81.2
2021-07-24 11:15:00 83.0 33.1 51.0 83.0 83.0 9.0 10.5 6.8 278.1 295.6 0.00 0.2714145 82.5 81.5
2021-07-24 11:20:00 83.1 32.4 50.6 83.1 83.1 1.9 9.6 5.5 308.9 300.5 0.00 0.2740276 82.3 81.8
2021-07-24 11:25:00 84.2 34.0 52.8 84.2 84.2 2.8 7.8 4.0 346.2 322.9 0.00 0.2762726 82.2 82.1
2021-07-24 11:30:00 84.3 31.6 50.9 84.3 84.3 3.3 8.1 5.6 341.5 311.7 0.00 0.2789721 82.1 82.4
2021-07-24 11:35:00 84.5 33.3 52.5 84.5 84.5 7.8 9.4 5.4 303.5 306.5 0.00 0.2806314 82.0 82.7
2021-07-24 11:40:00 84.4 33.3 52.4 84.4 84.4 3.7 8.0 4.9 286.7 308.9 0.00 0.2832367 81.8 83.0
2021-07-24 11:45:00 84.4 33.0 52.2 84.4 84.4 4.6 11.2 6.6 273.3 269.1 0.00 0.2847744 81.8 83.3
2021-07-24 11:50:00 84.4 33.1 52.2 84.4 84.4 7.2 10.1 6.6 240.0 276.6 0.00 0.2866776 81.6 83.6
2021-07-24 11:55:00 85.0 32.2 52.0 85.0 85.0 8.5 11.3 7.8 243.6 244.4 0.00 0.2885908 81.6 83.9
2021-07-24 12:00:00 85.0 31.9 51.7 85.0 85.0 6.9 10.8 7.5 247.1 247.5 0.00 0.2903458 81.5 84.2
2021-07-24 12:05:00 85.0 31.5 51.4 85.0 85.0 5.1 10.6 6.5 275.2 251.9 0.00 0.2922256 81.5 84.5
2021-07-24 12:10:00 84.7 34.1 53.3 84.7 84.7 1.9 11.5 5.2 340.9 229.3 0.00 0.2931423 81.5 84.7
2021-07-24 12:15:00 85.0 35.2 54.4 85.0 85.0 6.0 9.0 5.6 275.0 289.0 0.00 0.2935929 81.5 85.0
2021-07-24 12:20:00 85.8 33.1 53.5 85.8 85.8 5.6 8.1 5.9 278.6 284.6 0.00 0.2943126 81.6 85.2
2021-07-24 12:25:00 85.9 31.3 52.1 85.9 85.9 10.3 10.5 6.9 235.2 271.3 0.00 0.2962067 81.9 85.5
2021-07-24 12:30:00 85.0 32.6 52.4 85.0 85.0 4.2 10.3 7.7 206.1 208.7 0.00 0.2965131 82.5 85.7
2021-07-24 12:35:00 85.6 32.2 52.5 85.6 85.6 6.7 8.8 6.7 197.9 233.9 0.00 0.2982773 83.1 86.0
2021-07-24 12:40:00 85.4 31.2 51.5 85.4 85.4 8.5 10.5 5.8 277.4 233.5 0.00 0.2981526 83.8 86.2
2021-07-24 12:45:00 85.5 30.0 50.5 85.5 85.5 7.1 8.8 5.5 257.4 290.4 0.00 0.2994256 84.6 86.4
2021-07-24 12:50:00 85.9 29.6 50.5 85.9 85.9 8.0 9.4 6.3 217.8 259.0 0.00 0.2993647 85.3 86.6
2021-07-24 12:55:00 86.4 30.6 51.8 86.4 86.4 2.2 8.5 3.6 254.9 233.8 0.00 0.2985219 86.0 86.9
2021-07-24 13:00:00 85.9 32.2 52.8 85.9 85.9 6.9 11.9 6.7 224.8 255.4 0.00 0.2984931 86.7 87.0
2021-07-24 13:05:00 86.2 32.0 52.9 86.2 86.2 8.5 8.5 5.4 240.5 244.2 0.00 0.2984105 87.4 87.3
2021-07-24 13:10:00 86.4 34.0 54.7 86.4 86.4 4.9 9.9 5.9 302.3 224.3 0.00 0.2975422 88.0 87.5
2021-07-24 13:15:00 86.6 31.9 53.2 86.6 86.6 4.4 8.1 5.6 230.5 230.2 0.00 0.2967782 88.6 87.7
2021-07-24 13:20:00 86.1 32.0 52.8 86.1 86.1 7.6 13.3 9.4 243.0 245.0 0.00 0.2973746 89.2 87.9
2021-07-24 13:25:00 86.1 31.2 52.1 86.1 86.1 4.0 11.0 7.7 200.1 232.2 0.00 0.2971522 89.7 88.2
2021-07-24 13:30:00 87.4 30.3 52.4 87.4 87.4 12.4 13.7 5.9 234.6 235.2 0.00 0.2963844 90.2 88.4
2021-07-24 13:35:00 87.1 31.2 53.0 87.1 87.1 2.8 10.5 6.1 292.9 274.3 0.00 0.2950700 90.7 88.6
2021-07-24 13:40:00 87.0 31.4 53.1 87.0 87.0 3.5 7.2 4.6 211.4 260.4 0.00 0.2936158 91.2 88.9
2021-07-24 13:45:00 87.9 30.1 52.7 87.9 87.9 9.6 11.3 8.1 228.4 262.1 0.00 0.2933068 91.6 89.1
2021-07-24 13:50:00 87.2 30.4 52.3 87.2 87.2 9.2 10.1 7.6 238.3 204.1 0.00 0.2910027 92.1 89.3
2021-07-24 13:55:00 86.9 31.9 53.4 86.9 86.9 5.6 9.2 6.6 183.8 214.0 0.00 0.2891412 92.5 89.5
2021-07-24 14:00:00 87.1 30.2 52.1 87.1 87.1 7.6 9.9 6.6 243.1 211.4 0.00 0.2871956 92.9 89.8
2021-07-24 14:05:00 88.0 31.1 53.7 88.0 88.0 7.4 9.9 5.1 230.0 266.5 0.00 0.2870298 93.3 90.0
2021-07-24 14:10:00 88.0 31.5 54.0 88.0 88.0 7.6 15.3 8.4 171.9 217.2 0.00 0.2851298 93.7 90.2
2021-07-24 14:15:00 87.3 30.8 52.8 87.3 87.3 7.8 9.6 7.6 203.7 189.0 0.00 0.2822014 94.0 90.5
2021-07-24 14:20:00 87.5 29.6 52.0 87.5 87.5 4.6 11.0 7.0 215.1 235.3 0.00 0.2808786 94.3 90.7
2021-07-24 14:25:00 88.4 28.8 51.9 88.4 88.4 5.6 6.5 4.1 222.0 237.3 0.00 0.2783563 94.6 91.0
2021-07-24 14:30:00 89.2 27.8 51.7 89.2 89.2 11.9 14.2 9.4 263.8 232.3 0.00 0.2766781 94.9 91.2
2021-07-24 14:35:00 88.0 30.3 53.0 88.0 88.0 7.2 13.0 8.3 246.3 236.6 0.00 0.2742530 95.2 91.3
2021-07-24 14:40:00 88.8 27.8 51.3 88.8 88.8 5.6 11.2 8.1 266.0 215.5 0.00 0.2714886 95.5 91.5
2021-07-24 14:45:00 88.0 29.1 51.8 88.0 88.0 4.6 10.8 6.7 273.9 237.3 0.00 0.2684250 95.7 91.8
2021-07-24 14:50:00 89.0 27.9 51.6 89.0 89.0 6.2 13.0 9.1 206.9 229.3 0.00 0.2659713 95.9 91.9
2021-07-24 14:55:00 88.6 28.5 51.8 88.6 88.6 3.0 7.6 5.4 257.4 223.6 0.00 0.2579285 96.1 92.1
2021-07-24 15:00:00 88.9 29.1 52.7 88.9 88.9 4.2 8.8 5.1 205.7 248.8 0.00 0.2390726 96.3 92.3
2021-07-24 15:05:00 88.0 28.8 51.6 88.0 88.0 6.5 10.1 8.1 206.6 208.5 0.00 0.2560529 96.5 92.5
2021-07-24 15:10:00 88.7 27.6 51.0 88.7 88.7 4.9 8.1 5.3 158.4 182.2 0.00 0.2526499 96.7 92.6
2021-07-24 15:15:00 89.3 27.0 50.9 89.3 89.3 10.8 11.0 5.8 230.3 220.8 0.00 0.2496909 96.9 92.8
2021-07-24 15:20:00 89.2 27.1 51.0 89.2 89.2 8.1 11.0 7.0 249.8 251.0 0.00 0.2468382 97.1 92.9
2021-07-24 15:25:00 88.1 30.0 52.8 88.1 88.1 5.8 11.3 8.6 171.8 183.2 0.00 0.2424871 97.2 93.1
2021-07-24 15:30:00 88.8 27.3 50.7 88.8 88.8 4.4 11.0 7.3 199.0 218.4 0.00 0.2393964 97.3 93.3
2021-07-24 15:35:00 89.5 27.0 51.1 89.5 89.5 7.6 8.0 5.1 195.1 231.6 0.00 0.2356818 97.4 93.4
2021-07-24 15:40:00 88.6 28.0 51.4 88.6 88.6 7.2 8.0 6.4 276.5 237.2 0.00 0.2312057 97.5 93.5
2021-07-24 15:45:00 89.4 27.3 51.3 89.4 89.4 2.1 10.6 5.3 188.3 203.2 0.00 0.2274203 97.6 93.6
2021-07-24 15:50:00 89.5 26.7 50.8 89.5 89.5 5.1 8.1 5.6 323.9 245.2 0.00 0.2234043 97.8 93.8
2021-07-24 15:55:00 89.9 26.4 50.8 89.9 89.9 5.1 5.1 3.5 238.7 284.1 0.00 0.2192645 97.8 93.9
2021-07-24 16:00:00 89.5 29.3 53.4 89.5 89.5 5.6 8.8 6.6 176.5 229.3 0.00 0.2150814 97.9 94.0
2021-07-24 16:05:00 88.8 25.8 49.3 88.8 88.8 5.8 10.3 6.0 221.5 179.2 0.00 0.2101757 98.0 94.1
2021-07-24 16:10:00 89.7 28.2 52.4 89.7 89.7 4.6 8.1 5.4 155.3 205.4 0.00 0.2061578 98.1 94.2
2021-07-24 16:15:00 88.8 27.4 51.0 88.8 88.8 10.1 12.2 9.2 249.3 196.7 0.00 0.2017598 98.0 94.3
2021-07-24 16:20:00 89.7 25.8 50.1 89.7 89.7 11.3 14.2 9.9 216.4 230.1 0.00 0.1986942 98.1 94.4
2021-07-24 16:25:00 88.9 27.3 50.9 88.9 88.9 5.8 14.2 8.8 164.9 208.8 0.00 0.1938228 98.1 94.5
2021-07-24 16:30:00 90.2 23.7 48.3 90.2 90.2 10.5 12.4 8.4 252.5 214.0 0.00 0.1894856 98.0 94.5
2021-07-24 16:35:00 90.2 26.2 50.9 90.2 90.2 13.7 18.7 9.8 188.5 240.5 0.00 0.1851321 98.0 94.6
2021-07-24 16:40:00 89.6 25.3 49.4 89.6 89.6 4.2 11.2 7.9 251.2 222.3 0.00 0.1797559 97.9 94.6
2021-07-24 16:45:00 89.5 27.6 51.8 89.5 89.5 6.9 9.7 7.2 224.8 221.8 0.00 0.1748959 97.8 94.6
2021-07-24 16:50:00 89.2 27.2 51.1 89.2 89.2 4.6 10.6 6.8 170.1 212.9 0.00 0.1697738 97.8 94.7
2021-07-24 16:55:00 89.5 26.0 50.1 89.5 89.5 9.4 12.1 8.0 230.0 222.0 0.00 0.1649979 97.7 94.7
2021-07-24 17:00:00 89.5 28.7 52.8 89.5 89.5 6.9 9.4 6.7 197.1 217.4 0.00 0.1600228 97.6 94.7
2021-07-24 17:05:00 89.6 27.6 51.8 89.6 89.6 7.8 8.5 5.1 149.6 196.9 0.00 0.1542406 97.6 94.7
2021-07-24 17:10:00 89.1 26.7 50.5 89.1 89.1 6.3 10.5 7.5 187.9 160.2 0.00 0.1485498 97.5 94.7
2021-07-24 17:15:00 88.9 29.8 53.2 88.9 88.9 4.4 6.2 5.2 137.7 147.8 0.00 0.1437013 97.4 94.7
2021-07-24 17:20:00 88.6 28.7 51.9 88.6 88.6 4.7 6.9 5.0 173.5 140.8 0.00 0.1390983 97.3 94.7
2021-07-24 17:25:00 89.1 26.8 50.6 89.1 89.1 4.7 7.2 4.6 183.0 178.9 0.00 0.1338010 97.2 94.7
2021-07-24 17:30:00 89.2 29.1 52.9 89.2 89.2 5.8 9.2 5.9 198.0 213.4 0.00 0.1285282 97.0 94.7
2021-07-24 17:35:00 89.4 27.6 51.6 89.4 89.4 8.8 8.8 5.2 231.8 212.6 0.00 0.1235537 96.9 94.6
2021-07-24 17:40:00 88.8 28.8 52.2 88.8 88.8 10.6 10.6 7.1 215.0 203.1 0.00 0.1188632 96.8 94.6
2021-07-24 17:45:00 88.3 29.3 52.3 88.3 88.3 4.0 9.0 6.3 213.8 189.7 0.00 0.1133397 96.6 94.6
2021-07-24 17:50:00 89.1 28.7 52.4 89.1 89.1 4.6 8.5 6.5 223.9 217.5 0.00 0.1086093 96.5 94.6
2021-07-24 17:55:00 88.7 29.3 52.6 88.7 88.7 9.4 10.6 7.5 183.9 207.4 0.00 0.1037329 96.4 94.5
2021-07-24 18:00:00 88.2 29.2 52.1 88.2 88.2 7.8 9.4 6.8 160.3 185.7 0.00 0.0986170 96.2 94.4
2021-07-24 18:05:00 88.0 29.1 51.9 88.0 88.0 5.5 8.0 6.0 168.2 190.3 0.00 0.0936069 96.0 94.4
2021-07-24 18:10:00 88.0 29.6 52.4 88.0 88.0 6.2 6.9 5.4 167.1 178.3 0.00 0.0882106 95.8 94.4
2021-07-24 18:15:00 87.9 29.9 52.6 87.9 87.9 4.7 6.5 4.4 191.1 186.5 0.00 0.0830559 95.6 94.2
2021-07-24 18:20:00 88.2 29.5 52.4 88.2 88.2 8.0 9.4 6.3 206.6 210.7 0.00 0.0777838 95.4 94.2
2021-07-24 18:25:00 87.5 27.7 50.1 87.5 87.5 8.7 10.6 7.2 207.0 204.6 0.00 0.0740130 95.2 94.1
2021-07-24 18:30:00 87.8 30.3 52.8 87.8 87.8 5.6 8.1 5.7 203.8 207.6 0.00 0.0695182 94.9 94.0
2021-07-24 18:35:00 87.4 29.8 52.1 87.4 87.4 6.0 7.6 5.9 204.6 199.4 0.00 0.0645140 94.7 93.9
2021-07-24 18:40:00 87.2 30.1 52.1 87.2 87.2 5.1 8.3 6.0 239.8 209.8 0.00 0.0599157 94.4 93.8
2021-07-24 18:45:00 87.4 30.3 52.4 87.4 87.4 5.8 8.8 6.1 209.5 217.3 0.00 0.0558135 94.2 93.7
2021-07-24 18:50:00 87.0 30.6 52.4 87.0 87.0 6.7 8.0 5.9 205.9 215.4 0.00 0.0513609 93.9 93.6
2021-07-24 18:55:00 86.7 30.7 52.3 86.7 86.7 6.7 8.8 6.2 221.5 211.8 0.00 0.0469552 93.6 93.5
2021-07-24 19:00:00 86.4 31.9 52.9 86.4 86.4 6.3 8.0 5.8 213.9 217.2 0.00 0.0354230 93.3 93.3
2021-07-24 19:05:00 85.8 33.8 54.0 85.8 85.8 4.7 6.9 5.4 198.8 216.4 0.00 0.0319532 93.0 93.2
2021-07-24 19:10:00 85.3 33.0 53.0 85.3 85.3 4.7 6.9 5.4 211.1 207.0 0.00 0.0327703 92.8 93.1
2021-07-24 19:15:00 85.0 34.0 53.5 85.0 85.0 5.5 6.2 4.8 209.8 212.7 0.00 0.0289478 92.5 92.9
2021-07-24 19:20:00 84.5 34.8 53.7 84.5 84.5 4.7 6.7 5.2 222.6 213.7 0.00 0.0245083 92.2 92.8
2021-07-24 19:25:00 83.9 35.7 53.9 83.9 83.9 4.0 5.8 4.5 216.5 212.7 0.00 0.0205786 91.9 92.6
2021-07-24 19:30:00 83.4 36.9 54.3 83.4 83.4 3.7 4.7 4.0 209.0 211.8 0.00 0.0171229 91.6 92.4
2021-07-24 19:35:00 82.7 37.2 53.9 82.7 82.7 4.2 4.7 4.1 206.7 208.2 0.00 0.0101124 91.3 92.3
2021-07-24 19:40:00 82.0 37.7 53.6 82.0 82.0 3.8 4.6 3.8 197.9 208.9 0.00 0.0080963 91.0 92.1
2021-07-24 19:45:00 81.4 39.4 54.4 81.4 81.4 3.1 4.4 3.4 220.2 213.2 0.00 0.0063130 90.7 91.9
2021-07-24 19:50:00 80.6 40.9 54.7 80.6 80.5 3.3 3.7 3.2 224.2 218.5 0.00 0.0017701 90.4 91.8
2021-07-24 19:55:00 80.0 43.2 55.6 80.0 80.0 2.6 3.7 3.2 228.9 225.0 0.00 0.0006667 90.1 91.6
2021-07-24 20:00:00 79.3 44.2 55.7 79.3 79.3 3.0 3.5 2.9 225.0 225.1 0.00 0.0000127 89.8 91.4
2021-07-24 20:05:00 78.5 45.4 55.7 78.5 78.5 3.1 3.7 3.3 240.5 232.3 0.00 0.0000000 89.5 91.2
2021-07-24 20:10:00 78.3 45.9 55.8 78.3 78.3 2.6 3.3 2.6 249.7 239.6 0.00 0.0000000 89.2 91.0
2021-07-24 20:15:00 78.2 48.4 57.2 78.2 78.2 2.4 3.0 2.6 246.2 246.1 0.00 0.0000000 88.9 90.8
2021-07-24 20:20:00 77.8 49.7 57.5 77.8 77.8 1.3 2.4 2.0 242.8 245.3 0.00 0.0000000 88.6 90.7
2021-07-24 20:25:00 77.5 50.4 57.6 77.5 77.5 0.0 1.7 1.0 212.7 236.7 0.00 0.0000000 88.3 90.5
2021-07-24 20:30:00 75.8 52.6 57.2 75.8 75.8 3.3 5.6 2.9 153.2 167.0 0.00 0.0000000 88.1 90.3
2021-07-24 20:35:00 76.0 49.2 55.6 76.0 76.0 4.4 5.1 3.9 173.2 168.5 0.00 0.0000000 87.8 90.1
2021-07-24 20:40:00 76.3 50.8 56.8 76.3 76.3 2.4 4.6 3.3 198.5 186.8 0.00 0.0000000 87.5 89.9
2021-07-24 20:45:00 76.3 50.0 56.3 76.3 76.3 1.7 3.1 2.5 245.3 194.0 0.00 0.0000000 87.2 89.7
2021-07-24 20:50:00 76.0 49.2 55.6 76.0 76.0 3.0 3.5 2.6 217.8 215.6 0.00 0.0000000 87.0 89.5
2021-07-24 20:55:00 75.8 49.2 55.4 75.8 75.8 2.6 3.3 2.7 205.3 206.3 0.00 0.0000000 86.7 89.4
2021-07-24 21:00:00 75.6 50.9 56.1 75.6 75.6 1.7 3.0 2.5 205.6 203.4 0.00 0.0000000 86.5 89.2
2021-07-24 21:05:00 75.1 52.6 56.6 75.1 75.1 1.7 1.7 1.4 198.1 202.1 0.00 0.0000000 86.3 89.0
2021-07-24 21:10:00 74.7 52.8 56.3 74.7 74.7 2.4 2.8 2.2 206.4 199.5 0.00 0.0000000 86.0 88.8
2021-07-24 21:15:00 74.2 54.4 56.6 74.2 74.2 3.0 3.5 2.9 221.0 216.0 0.00 0.0000000 85.8 88.6
2021-07-24 21:20:00 73.6 54.3 56.1 73.6 73.6 3.7 3.8 3.3 227.6 224.6 0.00 0.0000000 85.6 88.5
2021-07-24 21:25:00 73.3 55.9 56.6 73.3 73.3 2.8 3.7 3.3 249.0 239.6 0.00 0.0000000 85.4 88.3
2021-07-24 21:30:00 73.2 57.5 57.3 73.2 73.2 1.9 3.1 2.6 249.1 252.8 0.00 0.0000000 85.2 88.1
2021-07-24 21:35:00 73.0 59.0 57.8 73.0 73.0 2.4 3.1 2.7 253.1 252.4 0.00 0.0000000 84.9 88.0
2021-07-24 21:40:00 72.7 61.8 58.8 72.7 72.7 2.2 2.6 2.2 238.1 251.0 0.00 0.0000000 84.7 87.8
2021-07-24 21:45:00 72.3 62.6 58.8 72.3 72.3 2.1 2.6 2.3 255.1 236.5 0.00 0.0000000 84.5 87.6
2021-07-24 21:50:00 72.1 62.4 58.5 72.1 72.1 1.9 2.1 1.7 265.9 259.2 0.00 0.0000000 84.3 87.5

Data is courtesy of the NM Climate Center. DO NOT USE IN LEGAL PROCEEDINGS.